sensor_id;sensor_type;location;lat;lon;timestamp;P1;durP1;ratioP1;P2;durP2;ratioP2
11548;SDS011;61444;59.472;18.306;2023-02-27T00:00:15;16.47;;;8.57;;
11548;SDS011;61444;59.472;18.306;2023-02-27T00:02:25;16.93;;;9.07;;
11548;SDS011;61444;59.472;18.306;2023-02-27T00:04:33;20.33;;;9.47;;
11548;SDS011;61444;59.472;18.306;2023-02-27T00:06:42;18.13;;;8.60;;
11548;SDS011;61444;59.472;18.306;2023-02-27T00:08:51;18.07;;;7.20;;
11548;SDS011;61444;59.472;18.306;2023-02-27T00:11:00;18.90;;;6.73;;
11548;SDS011;61444;59.472;18.306;2023-02-27T00:13:11;14.97;;;6.20;;
11548;SDS011;61444;59.472;18.306;2023-02-27T00:15:20;14.80;;;6.50;;
11548;SDS011;61444;59.472;18.306;2023-02-27T00:17:29;17.23;;;8.07;;
11548;SDS011;61444;59.472;18.306;2023-02-27T00:19:38;18.10;;;7.77;;
11548;SDS011;61444;59.472;18.306;2023-02-27T00:21:47;18.93;;;8.87;;
11548;SDS011;61444;59.472;18.306;2023-02-27T00:23:55;18.83;;;7.50;;
11548;SDS011;61444;59.472;18.306;2023-02-27T00:26:04;14.87;;;5.80;;
11548;SDS011;61444;59.472;18.306;2023-02-27T00:28:15;9.57;;;5.43;;
11548;SDS011;61444;59.472;18.306;2023-02-27T00:30:24;12.63;;;5.13;;
11548;SDS011;61444;59.472;18.306;2023-02-27T00:32:33;11.33;;;4.87;;
11548;SDS011;61444;59.472;18.306;2023-02-27T00:34:43;9.03;;;4.13;;
11548;SDS011;61444;59.472;18.306;2023-02-27T00:36:52;14.77;;;6.40;;
11548;SDS011;61444;59.472;18.306;2023-02-27T00:39:01;16.07;;;5.83;;
11548;SDS011;61444;59.472;18.306;2023-02-27T00:41:11;14.17;;;6.50;;
11548;SDS011;61444;59.472;18.306;2023-02-27T00:43:21;15.13;;;5.97;;
11548;SDS011;61444;59.472;18.306;2023-02-27T00:45:29;19.03;;;8.00;;
11548;SDS011;61444;59.472;18.306;2023-02-27T00:47:38;15.43;;;7.33;;
11548;SDS011;61444;59.472;18.306;2023-02-27T00:49:47;12.57;;;7.57;;
11548;SDS011;61444;59.472;18.306;2023-02-27T00:51:56;15.73;;;7.57;;
11548;SDS011;61444;59.472;18.306;2023-02-27T00:54:05;14.57;;;7.33;;
11548;SDS011;61444;59.472;18.306;2023-02-27T00:56:14;18.00;;;7.37;;
11548;SDS011;61444;59.472;18.306;2023-02-27T00:58:25;14.70;;;7.57;;
11548;SDS011;61444;59.472;18.306;2023-02-27T01:00:34;15.77;;;7.43;;
11548;SDS011;61444;59.472;18.306;2023-02-27T01:02:43;14.00;;;7.53;;
11548;SDS011;61444;59.472;18.306;2023-02-27T01:04:52;12.03;;;6.37;;
11548;SDS011;61444;59.472;18.306;2023-02-27T01:07:01;17.37;;;7.73;;
11548;SDS011;61444;59.472;18.306;2023-02-27T01:09:09;13.77;;;6.70;;
11548;SDS011;61444;59.472;18.306;2023-02-27T01:11:18;13.57;;;4.93;;
11548;SDS011;61444;59.472;18.306;2023-02-27T01:13:28;12.07;;;5.50;;
11548;SDS011;61444;59.472;18.306;2023-02-27T01:15:37;14.10;;;6.00;;
11548;SDS011;61444;59.472;18.306;2023-02-27T01:17:46;14.10;;;5.77;;
11548;SDS011;61444;59.472;18.306;2023-02-27T01:19:55;13.57;;;6.07;;
11548;SDS011;61444;59.472;18.306;2023-02-27T01:22:05;15.33;;;6.80;;
11548;SDS011;61444;59.472;18.306;2023-02-27T01:24:14;11.17;;;5.47;;
11548;SDS011;61444;59.472;18.306;2023-02-27T01:26:24;11.80;;;6.03;;
11548;SDS011;61444;59.472;18.306;2023-02-27T01:28:34;13.23;;;5.30;;
11548;SDS011;61444;59.472;18.306;2023-02-27T01:30:43;9.83;;;4.80;;
11548;SDS011;61444;59.472;18.306;2023-02-27T01:32:52;11.53;;;5.00;;
11548;SDS011;61444;59.472;18.306;2023-02-27T01:35:01;8.43;;;4.00;;
11548;SDS011;61444;59.472;18.306;2023-02-27T01:37:10;7.50;;;3.90;;
11548;SDS011;61444;59.472;18.306;2023-02-27T01:39:18;7.33;;;3.70;;
11548;SDS011;61444;59.472;18.306;2023-02-27T01:41:27;11.10;;;4.87;;
11548;SDS011;61444;59.472;18.306;2023-02-27T01:46:10;10.20;;;4.60;;
11548;SDS011;61444;59.472;18.306;2023-02-27T01:48:20;10.30;;;5.40;;
11548;SDS011;61444;59.472;18.306;2023-02-27T01:50:30;8.47;;;4.50;;
11548;SDS011;61444;59.472;18.306;2023-02-27T01:52:38;10.40;;;4.90;;
11548;SDS011;61444;59.472;18.306;2023-02-27T01:54:49;10.17;;;3.43;;
11548;SDS011;61444;59.472;18.306;2023-02-27T01:56:58;6.40;;;3.73;;
11548;SDS011;61444;59.472;18.306;2023-02-27T01:59:08;10.23;;;3.53;;
11548;SDS011;61444;59.472;18.306;2023-02-27T02:01:20;8.10;;;2.77;;
11548;SDS011;61444;59.472;18.306;2023-02-27T02:03:32;7.17;;;3.10;;
11548;SDS011;61444;59.472;18.306;2023-02-27T02:05:42;6.13;;;3.00;;
11548;SDS011;61444;59.472;18.306;2023-02-27T02:07:52;7.43;;;2.70;;
11548;SDS011;61444;59.472;18.306;2023-02-27T02:10:01;3.90;;;1.97;;
11548;SDS011;61444;59.472;18.306;2023-02-27T02:12:10;5.73;;;2.53;;
11548;SDS011;61444;59.472;18.306;2023-02-27T02:14:21;8.63;;;2.80;;
11548;SDS011;61444;59.472;18.306;2023-02-27T02:16:42;7.93;;;2.50;;
11548;SDS011;61444;59.472;18.306;2023-02-27T02:18:55;8.23;;;2.27;;
11548;SDS011;61444;59.472;18.306;2023-02-27T02:21:15;5.27;;;2.03;;
11548;SDS011;61444;59.472;18.306;2023-02-27T02:26:19;6.57;;;3.10;;
11548;SDS011;61444;59.472;18.306;2023-02-27T02:28:41;7.73;;;3.50;;
11548;SDS011;61444;59.472;18.306;2023-02-27T02:31:01;5.37;;;2.90;;
11548;SDS011;61444;59.472;18.306;2023-02-27T02:33:28;9.37;;;4.00;;
11548;SDS011;61444;59.472;18.306;2023-02-27T02:40:41;9.03;;;3.00;;
11548;SDS011;61444;59.472;18.306;2023-02-27T02:42:55;6.27;;;3.63;;
11548;SDS011;61444;59.472;18.306;2023-02-27T02:45:09;7.70;;;3.67;;
11548;SDS011;61444;59.472;18.306;2023-02-27T02:47:21;10.43;;;3.60;;
11548;SDS011;61444;59.472;18.306;2023-02-27T02:49:35;8.73;;;3.97;;
11548;SDS011;61444;59.472;18.306;2023-02-27T02:51:49;6.80;;;4.20;;
11548;SDS011;61444;59.472;18.306;2023-02-27T02:54:01;8.40;;;3.90;;
11548;SDS011;61444;59.472;18.306;2023-02-27T02:56:16;8.43;;;4.20;;
11548;SDS011;61444;59.472;18.306;2023-02-27T02:58:28;8.00;;;3.00;;
11548;SDS011;61444;59.472;18.306;2023-02-27T03:00:40;8.07;;;3.83;;
11548;SDS011;61444;59.472;18.306;2023-02-27T03:02:52;8.63;;;3.40;;
11548;SDS011;61444;59.472;18.306;2023-02-27T03:05:04;10.60;;;4.27;;
11548;SDS011;61444;59.472;18.306;2023-02-27T03:07:14;6.23;;;3.73;;
11548;SDS011;61444;59.472;18.306;2023-02-27T03:09:27;6.23;;;3.10;;
11548;SDS011;61444;59.472;18.306;2023-02-27T03:11:40;4.43;;;1.97;;
11548;SDS011;61444;59.472;18.306;2023-02-27T03:13:49;7.43;;;1.97;;
11548;SDS011;61444;59.472;18.306;2023-02-27T03:16:01;9.03;;;3.80;;
11548;SDS011;61444;59.472;18.306;2023-02-27T03:18:12;6.70;;;3.07;;
11548;SDS011;61444;59.472;18.306;2023-02-27T03:20:26;5.33;;;2.73;;
11548;SDS011;61444;59.472;18.306;2023-02-27T03:22:36;8.23;;;3.43;;
11548;SDS011;61444;59.472;18.306;2023-02-27T03:24:47;5.97;;;2.60;;
11548;SDS011;61444;59.472;18.306;2023-02-27T03:26:59;5.23;;;1.90;;
11548;SDS011;61444;59.472;18.306;2023-02-27T03:29:10;4.00;;;1.87;;
11548;SDS011;61444;59.472;18.306;2023-02-27T03:31:21;4.87;;;1.60;;
11548;SDS011;61444;59.472;18.306;2023-02-27T03:33:34;4.03;;;1.97;;
11548;SDS011;61444;59.472;18.306;2023-02-27T03:35:46;1.73;;;1.30;;
11548;SDS011;61444;59.472;18.306;2023-02-27T03:37:59;4.50;;;2.10;;
11548;SDS011;61444;59.472;18.306;2023-02-27T03:40:12;3.37;;;1.97;;
11548;SDS011;61444;59.472;18.306;2023-02-27T03:42:28;6.73;;;2.00;;
11548;SDS011;61444;59.472;18.306;2023-02-27T03:44:41;3.27;;;1.70;;
11548;SDS011;61444;59.472;18.306;2023-02-27T03:46:55;7.10;;;1.93;;
11548;SDS011;61444;59.472;18.306;2023-02-27T03:49:04;3.03;;;1.70;;
11548;SDS011;61444;59.472;18.306;2023-02-27T03:51:14;4.30;;;1.60;;
11548;SDS011;61444;59.472;18.306;2023-02-27T03:53:26;3.87;;;1.80;;
11548;SDS011;61444;59.472;18.306;2023-02-27T03:55:38;3.73;;;1.60;;
11548;SDS011;61444;59.472;18.306;2023-02-27T03:57:49;3.73;;;1.90;;
11548;SDS011;61444;59.472;18.306;2023-02-27T03:59:58;4.27;;;1.57;;
11548;SDS011;61444;59.472;18.306;2023-02-27T04:02:10;5.30;;;1.40;;
11548;SDS011;61444;59.472;18.306;2023-02-27T04:04:19;3.93;;;1.40;;
11548;SDS011;61444;59.472;18.306;2023-02-27T04:06:28;2.90;;;1.73;;
11548;SDS011;61444;59.472;18.306;2023-02-27T04:08:57;2.93;;;1.77;;
11548;SDS011;61444;59.472;18.306;2023-02-27T04:11:15;5.73;;;1.80;;
11548;SDS011;61444;59.472;18.306;2023-02-27T04:15:55;3.63;;;1.70;;
11548;SDS011;61444;59.472;18.306;2023-02-27T04:18:09;4.03;;;1.73;;
11548;SDS011;61444;59.472;18.306;2023-02-27T04:20:33;2.93;;;1.27;;
11548;SDS011;61444;59.472;18.306;2023-02-27T04:22:45;4.20;;;2.10;;
11548;SDS011;61444;59.472;18.306;2023-02-27T04:24:57;2.43;;;1.80;;
11548;SDS011;61444;59.472;18.306;2023-02-27T04:27:15;6.33;;;2.50;;
11548;SDS011;61444;59.472;18.306;2023-02-27T04:29:27;6.40;;;2.70;;
11548;SDS011;61444;59.472;18.306;2023-02-27T04:31:44;7.93;;;2.00;;
11548;SDS011;61444;59.472;18.306;2023-02-27T04:33:57;7.40;;;1.90;;
11548;SDS011;61444;59.472;18.306;2023-02-27T04:36:07;2.63;;;1.63;;
11548;SDS011;61444;59.472;18.306;2023-02-27T04:38:19;3.47;;;2.00;;
11548;SDS011;61444;59.472;18.306;2023-02-27T04:40:31;3.63;;;2.00;;
11548;SDS011;61444;59.472;18.306;2023-02-27T04:42:43;4.53;;;1.60;;
11548;SDS011;61444;59.472;18.306;2023-02-27T04:44:53;3.03;;;1.60;;
11548;SDS011;61444;59.472;18.306;2023-02-27T04:47:05;3.10;;;1.73;;
11548;SDS011;61444;59.472;18.306;2023-02-27T04:49:15;6.43;;;1.80;;
11548;SDS011;61444;59.472;18.306;2023-02-27T04:51:26;4.20;;;1.90;;
11548;SDS011;61444;59.472;18.306;2023-02-27T04:53:39;5.37;;;1.70;;
11548;SDS011;61444;59.472;18.306;2023-02-27T04:55:51;3.60;;;2.00;;
11548;SDS011;61444;59.472;18.306;2023-02-27T04:58:03;3.23;;;1.43;;
11548;SDS011;61444;59.472;18.306;2023-02-27T05:00:16;5.07;;;1.57;;
11548;SDS011;61444;59.472;18.306;2023-02-27T05:02:30;3.07;;;1.97;;
11548;SDS011;61444;59.472;18.306;2023-02-27T05:04:39;4.23;;;1.70;;
11548;SDS011;61444;59.472;18.306;2023-02-27T05:06:50;4.50;;;2.50;;
11548;SDS011;61444;59.472;18.306;2023-02-27T05:09:03;4.23;;;2.00;;
11548;SDS011;61444;59.472;18.306;2023-02-27T05:11:14;9.03;;;2.90;;
11548;SDS011;61444;59.472;18.306;2023-02-27T05:13:25;5.30;;;3.03;;
11548;SDS011;61444;59.472;18.306;2023-02-27T05:15:36;6.40;;;3.00;;
11548;SDS011;61444;59.472;18.306;2023-02-27T05:17:50;5.80;;;2.10;;
11548;SDS011;61444;59.472;18.306;2023-02-27T05:20:03;8.57;;;3.67;;
11548;SDS011;61444;59.472;18.306;2023-02-27T05:22:17;4.17;;;2.93;;
11548;SDS011;61444;59.472;18.306;2023-02-27T05:24:29;6.40;;;2.33;;
11548;SDS011;61444;59.472;18.306;2023-02-27T05:26:44;6.10;;;2.53;;
11548;SDS011;61444;59.472;18.306;2023-02-27T05:28:54;4.57;;;3.03;;
11548;SDS011;61444;59.472;18.306;2023-02-27T05:31:08;5.33;;;2.97;;
11548;SDS011;61444;59.472;18.306;2023-02-27T05:33:25;4.77;;;2.50;;
11548;SDS011;61444;59.472;18.306;2023-02-27T05:35:36;6.40;;;2.37;;
11548;SDS011;61444;59.472;18.306;2023-02-27T05:37:47;6.07;;;2.23;;
11548;SDS011;61444;59.472;18.306;2023-02-27T05:39:57;4.93;;;2.23;;
11548;SDS011;61444;59.472;18.306;2023-02-27T05:42:08;4.93;;;2.37;;
11548;SDS011;61444;59.472;18.306;2023-02-27T05:44:20;5.50;;;2.50;;
11548;SDS011;61444;59.472;18.306;2023-02-27T05:46:30;6.40;;;2.73;;
11548;SDS011;61444;59.472;18.306;2023-02-27T05:48:43;5.03;;;2.60;;
11548;SDS011;61444;59.472;18.306;2023-02-27T05:50:53;7.80;;;2.83;;
11548;SDS011;61444;59.472;18.306;2023-02-27T05:53:04;3.97;;;2.53;;
11548;SDS011;61444;59.472;18.306;2023-02-27T05:55:16;4.67;;;2.23;;
11548;SDS011;61444;59.472;18.306;2023-02-27T05:57:26;3.23;;;2.20;;
11548;SDS011;61444;59.472;18.306;2023-02-27T05:59:37;5.07;;;2.80;;
11548;SDS011;61444;59.472;18.306;2023-02-27T06:01:49;2.77;;;2.40;;
11548;SDS011;61444;59.472;18.306;2023-02-27T06:04:00;5.47;;;2.50;;
11548;SDS011;61444;59.472;18.306;2023-02-27T06:06:10;6.87;;;2.60;;
11548;SDS011;61444;59.472;18.306;2023-02-27T06:08:20;5.70;;;2.60;;
11548;SDS011;61444;59.472;18.306;2023-02-27T06:10:29;4.73;;;2.60;;
11548;SDS011;61444;59.472;18.306;2023-02-27T06:12:38;4.13;;;2.57;;
11548;SDS011;61444;59.472;18.306;2023-02-27T06:14:47;4.03;;;2.53;;
11548;SDS011;61444;59.472;18.306;2023-02-27T06:16:57;5.03;;;2.30;;
11548;SDS011;61444;59.472;18.306;2023-02-27T06:19:07;4.40;;;2.77;;
11548;SDS011;61444;59.472;18.306;2023-02-27T06:21:15;2.70;;;1.90;;
11548;SDS011;61444;59.472;18.306;2023-02-27T06:23:25;3.00;;;1.90;;
11548;SDS011;61444;59.472;18.306;2023-02-27T06:25:33;3.53;;;2.40;;
11548;SDS011;61444;59.472;18.306;2023-02-27T06:27:42;4.23;;;2.47;;
11548;SDS011;61444;59.472;18.306;2023-02-27T06:29:51;9.87;;;5.70;;
11548;SDS011;61444;59.472;18.306;2023-02-27T06:32:00;8.80;;;4.60;;
11548;SDS011;61444;59.472;18.306;2023-02-27T06:34:10;5.30;;;2.17;;
11548;SDS011;61444;59.472;18.306;2023-02-27T06:36:20;6.27;;;3.33;;
11548;SDS011;61444;59.472;18.306;2023-02-27T06:38:29;7.40;;;3.20;;
11548;SDS011;61444;59.472;18.306;2023-02-27T06:40:39;3.77;;;2.40;;
11548;SDS011;61444;59.472;18.306;2023-02-27T06:42:48;4.50;;;1.97;;
11548;SDS011;61444;59.472;18.306;2023-02-27T06:44:57;5.07;;;2.30;;
11548;SDS011;61444;59.472;18.306;2023-02-27T06:47:07;6.47;;;2.00;;
11548;SDS011;61444;59.472;18.306;2023-02-27T06:49:17;3.70;;;1.80;;
11548;SDS011;61444;59.472;18.306;2023-02-27T06:51:26;3.13;;;1.50;;
11548;SDS011;61444;59.472;18.306;2023-02-27T06:53:35;3.97;;;1.80;;
11548;SDS011;61444;59.472;18.306;2023-02-27T06:55:44;2.67;;;1.77;;
11548;SDS011;61444;59.472;18.306;2023-02-27T06:57:53;4.47;;;1.47;;
11548;SDS011;61444;59.472;18.306;2023-02-27T07:00:02;2.47;;;1.43;;
11548;SDS011;61444;59.472;18.306;2023-02-27T07:02:12;3.57;;;1.63;;
11548;SDS011;61444;59.472;18.306;2023-02-27T07:04:23;3.47;;;1.53;;
11548;SDS011;61444;59.472;18.306;2023-02-27T07:06:32;3.97;;;1.57;;
11548;SDS011;61444;59.472;18.306;2023-02-27T07:09:00;7.70;;;1.43;;
11548;SDS011;61444;59.472;18.306;2023-02-27T07:11:12;1.97;;;1.33;;
11548;SDS011;61444;59.472;18.306;2023-02-27T07:13:21;6.73;;;2.13;;
11548;SDS011;61444;59.472;18.306;2023-02-27T07:15:30;3.03;;;1.60;;
11548;SDS011;61444;59.472;18.306;2023-02-27T07:17:39;6.13;;;1.50;;
11548;SDS011;61444;59.472;18.306;2023-02-27T07:19:49;2.03;;;1.30;;
11548;SDS011;61444;59.472;18.306;2023-02-27T07:21:58;4.70;;;1.80;;
11548;SDS011;61444;59.472;18.306;2023-02-27T07:24:07;3.13;;;1.47;;
11548;SDS011;61444;59.472;18.306;2023-02-27T07:26:16;4.63;;;1.60;;
11548;SDS011;61444;59.472;18.306;2023-02-27T07:28:25;4.33;;;1.60;;
11548;SDS011;61444;59.472;18.306;2023-02-27T07:30:34;4.47;;;2.10;;
11548;SDS011;61444;59.472;18.306;2023-02-27T07:32:43;2.70;;;1.70;;
11548;SDS011;61444;59.472;18.306;2023-02-27T07:34:54;3.93;;;2.33;;
11548;SDS011;61444;59.472;18.306;2023-02-27T07:37:04;4.50;;;1.73;;
11548;SDS011;61444;59.472;18.306;2023-02-27T07:39:13;4.10;;;1.60;;
11548;SDS011;61444;59.472;18.306;2023-02-27T07:41:22;2.37;;;1.57;;
11548;SDS011;61444;59.472;18.306;2023-02-27T07:43:36;2.63;;;1.63;;
11548;SDS011;61444;59.472;18.306;2023-02-27T07:45:46;4.50;;;1.73;;
11548;SDS011;61444;59.472;18.306;2023-02-27T07:47:56;8.47;;;2.03;;
11548;SDS011;61444;59.472;18.306;2023-02-27T07:50:07;3.20;;;1.33;;
11548;SDS011;61444;59.472;18.306;2023-02-27T07:52:19;3.33;;;1.40;;
11548;SDS011;61444;59.472;18.306;2023-02-27T07:54:28;4.73;;;2.00;;
11548;SDS011;61444;59.472;18.306;2023-02-27T07:56:41;2.83;;;1.50;;
11548;SDS011;61444;59.472;18.306;2023-02-27T07:58:49;3.70;;;1.67;;
11548;SDS011;61444;59.472;18.306;2023-02-27T08:00:58;3.87;;;1.67;;
11548;SDS011;61444;59.472;18.306;2023-02-27T08:03:07;2.80;;;1.57;;
11548;SDS011;61444;59.472;18.306;2023-02-27T08:05:18;4.07;;;1.83;;
11548;SDS011;61444;59.472;18.306;2023-02-27T08:07:26;4.03;;;1.73;;
11548;SDS011;61444;59.472;18.306;2023-02-27T08:09:35;1.90;;;1.30;;
11548;SDS011;61444;59.472;18.306;2023-02-27T08:11:44;3.33;;;1.27;;
11548;SDS011;61444;59.472;18.306;2023-02-27T08:13:54;3.10;;;1.30;;
11548;SDS011;61444;59.472;18.306;2023-02-27T08:16:07;2.70;;;1.30;;
11548;SDS011;61444;59.472;18.306;2023-02-27T08:18:16;3.33;;;1.30;;
11548;SDS011;61444;59.472;18.306;2023-02-27T08:20:26;3.37;;;1.20;;
11548;SDS011;61444;59.472;18.306;2023-02-27T08:22:37;4.57;;;1.10;;
11548;SDS011;61444;59.472;18.306;2023-02-27T08:24:45;4.30;;;1.30;;
11548;SDS011;61444;59.472;18.306;2023-02-27T08:26:54;2.40;;;1.30;;
11548;SDS011;61444;59.472;18.306;2023-02-27T08:29:04;1.50;;;1.00;;
11548;SDS011;61444;59.472;18.306;2023-02-27T08:31:13;4.30;;;1.40;;
11548;SDS011;61444;59.472;18.306;2023-02-27T08:33:22;2.90;;;1.00;;
11548;SDS011;61444;59.472;18.306;2023-02-27T08:35:32;1.57;;;0.90;;
11548;SDS011;61444;59.472;18.306;2023-02-27T08:37:41;3.20;;;1.07;;
11548;SDS011;61444;59.472;18.306;2023-02-27T08:39:50;1.30;;;0.97;;
11548;SDS011;61444;59.472;18.306;2023-02-27T08:41:59;0.97;;;0.73;;
11548;SDS011;61444;59.472;18.306;2023-02-27T08:44:09;1.40;;;0.83;;
11548;SDS011;61444;59.472;18.306;2023-02-27T08:46:18;1.70;;;0.90;;
11548;SDS011;61444;59.472;18.306;2023-02-27T08:48:27;1.37;;;0.70;;
11548;SDS011;61444;59.472;18.306;2023-02-27T08:50:37;1.60;;;0.60;;
11548;SDS011;61444;59.472;18.306;2023-02-27T08:52:46;1.80;;;0.60;;
11548;SDS011;61444;59.472;18.306;2023-02-27T08:54:55;2.57;;;0.80;;
11548;SDS011;61444;59.472;18.306;2023-02-27T08:57:04;1.60;;;0.60;;
11548;SDS011;61444;59.472;18.306;2023-02-27T08:59:13;1.40;;;0.70;;
11548;SDS011;61444;59.472;18.306;2023-02-27T09:01:22;0.53;;;0.40;;
11548;SDS011;61444;59.472;18.306;2023-02-27T09:03:35;1.03;;;0.63;;
11548;SDS011;61444;59.472;18.306;2023-02-27T09:05:46;2.17;;;1.00;;
11548;SDS011;61444;59.472;18.306;2023-02-27T09:07:56;1.17;;;0.60;;
11548;SDS011;61444;59.472;18.306;2023-02-27T09:10:05;0.70;;;0.60;;
11548;SDS011;61444;59.472;18.306;2023-02-27T09:12:15;1.37;;;0.70;;
11548;SDS011;61444;59.472;18.306;2023-02-27T09:14:23;1.00;;;0.50;;
11548;SDS011;61444;59.472;18.306;2023-02-27T09:16:32;0.60;;;0.50;;
11548;SDS011;61444;59.472;18.306;2023-02-27T09:18:41;2.97;;;0.80;;
11548;SDS011;61444;59.472;18.306;2023-02-27T09:20:52;0.90;;;0.80;;
11548;SDS011;61444;59.472;18.306;2023-02-27T09:23:02;1.47;;;0.97;;
11548;SDS011;61444;59.472;18.306;2023-02-27T09:25:11;0.80;;;0.60;;
11548;SDS011;61444;59.472;18.306;2023-02-27T09:27:19;1.90;;;0.93;;
11548;SDS011;61444;59.472;18.306;2023-02-27T09:29:29;1.43;;;0.60;;
11548;SDS011;61444;59.472;18.306;2023-02-27T09:31:38;1.07;;;0.70;;
11548;SDS011;61444;59.472;18.306;2023-02-27T09:33:47;2.03;;;0.60;;
11548;SDS011;61444;59.472;18.306;2023-02-27T09:35:58;0.80;;;0.70;;
11548;SDS011;61444;59.472;18.306;2023-02-27T09:38:06;1.47;;;0.70;;
11548;SDS011;61444;59.472;18.306;2023-02-27T09:40:18;0.70;;;0.70;;
11548;SDS011;61444;59.472;18.306;2023-02-27T09:42:31;1.03;;;0.60;;
11548;SDS011;61444;59.472;18.306;2023-02-27T09:44:41;2.23;;;0.60;;
11548;SDS011;61444;59.472;18.306;2023-02-27T09:46:53;0.97;;;0.60;;
11548;SDS011;61444;59.472;18.306;2023-02-27T09:49:01;1.30;;;0.57;;
11548;SDS011;61444;59.472;18.306;2023-02-27T09:51:13;1.03;;;0.73;;
11548;SDS011;61444;59.472;18.306;2023-02-27T09:53:24;1.53;;;0.60;;
11548;SDS011;61444;59.472;18.306;2023-02-27T09:55:34;1.33;;;0.57;;
11548;SDS011;61444;59.472;18.306;2023-02-27T09:57:46;1.03;;;0.50;;
11548;SDS011;61444;59.472;18.306;2023-02-27T09:59:58;1.10;;;0.60;;
11548;SDS011;61444;59.472;18.306;2023-02-27T10:02:14;0.70;;;0.50;;
11548;SDS011;61444;59.472;18.306;2023-02-27T10:04:28;0.50;;;0.50;;
11548;SDS011;61444;59.472;18.306;2023-02-27T10:06:41;0.53;;;0.47;;
11548;SDS011;61444;59.472;18.306;2023-02-27T10:08:53;1.10;;;0.70;;
11548;SDS011;61444;59.472;18.306;2023-02-27T10:11:06;0.80;;;0.60;;
11548;SDS011;61444;59.472;18.306;2023-02-27T10:13:29;0.90;;;0.60;;
11548;SDS011;61444;59.472;18.306;2023-02-27T10:15:42;0.70;;;0.50;;
11548;SDS011;61444;59.472;18.306;2023-02-27T10:17:55;1.20;;;0.50;;
11548;SDS011;61444;59.472;18.306;2023-02-27T10:20:19;1.20;;;0.90;;
11548;SDS011;61444;59.472;18.306;2023-02-27T10:22:34;1.97;;;0.50;;
11548;SDS011;61444;59.472;18.306;2023-02-27T10:24:43;0.60;;;0.50;;
11548;SDS011;61444;59.472;18.306;2023-02-27T10:26:56;1.57;;;0.60;;
11548;SDS011;61444;59.472;18.306;2023-02-27T10:29:13;1.03;;;0.50;;
11548;SDS011;61444;59.472;18.306;2023-02-27T10:31:24;1.87;;;0.70;;
11548;SDS011;61444;59.472;18.306;2023-02-27T10:33:35;0.70;;;0.57;;
11548;SDS011;61444;59.472;18.306;2023-02-27T10:35:44;1.03;;;0.60;;
11548;SDS011;61444;59.472;18.306;2023-02-27T10:37:56;0.73;;;0.53;;
11548;SDS011;61444;59.472;18.306;2023-02-27T10:40:11;3.40;;;0.70;;
11548;SDS011;61444;59.472;18.306;2023-02-27T10:42:23;1.20;;;0.70;;
11548;SDS011;61444;59.472;18.306;2023-02-27T10:44:33;2.10;;;0.60;;
11548;SDS011;61444;59.472;18.306;2023-02-27T10:46:42;3.53;;;2.00;;
11548;SDS011;61444;59.472;18.306;2023-02-27T10:48:52;2.80;;;0.90;;
11548;SDS011;61444;59.472;18.306;2023-02-27T10:51:19;0.90;;;0.60;;
11548;SDS011;61444;59.472;18.306;2023-02-27T10:53:29;2.23;;;0.97;;
11548;SDS011;61444;59.472;18.306;2023-02-27T10:55:46;3.20;;;1.10;;
11548;SDS011;61444;59.472;18.306;2023-02-27T10:57:55;2.07;;;0.90;;
11548;SDS011;61444;59.472;18.306;2023-02-27T11:00:09;0.90;;;0.70;;
11548;SDS011;61444;59.472;18.306;2023-02-27T11:02:32;1.83;;;0.97;;
11548;SDS011;61444;59.472;18.306;2023-02-27T11:04:45;1.07;;;0.70;;
11548;SDS011;61444;59.472;18.306;2023-02-27T11:06:59;1.07;;;0.50;;
11548;SDS011;61444;59.472;18.306;2023-02-27T11:09:15;0.60;;;0.60;;
11548;SDS011;61444;59.472;18.306;2023-02-27T11:11:27;0.60;;;0.50;;
11548;SDS011;61444;59.472;18.306;2023-02-27T11:13:37;2.53;;;1.00;;
11548;SDS011;61444;59.472;18.306;2023-02-27T11:16:00;0.63;;;0.53;;
11548;SDS011;61444;59.472;18.306;2023-02-27T11:18:20;0.73;;;0.50;;
11548;SDS011;61444;59.472;18.306;2023-02-27T11:20:32;0.80;;;0.60;;
11548;SDS011;61444;59.472;18.306;2023-02-27T11:22:42;0.33;;;0.33;;
11548;SDS011;61444;59.472;18.306;2023-02-27T11:25:08;0.80;;;0.50;;
11548;SDS011;61444;59.472;18.306;2023-02-27T11:27:19;1.07;;;0.50;;
11548;SDS011;61444;59.472;18.306;2023-02-27T11:29:28;0.97;;;0.70;;
11548;SDS011;61444;59.472;18.306;2023-02-27T11:31:37;1.83;;;0.90;;
11548;SDS011;61444;59.472;18.306;2023-02-27T11:33:47;1.20;;;0.70;;
11548;SDS011;61444;59.472;18.306;2023-02-27T11:35:57;0.60;;;0.43;;
11548;SDS011;61444;59.472;18.306;2023-02-27T11:38:07;2.03;;;1.23;;
11548;SDS011;61444;59.472;18.306;2023-02-27T11:40:26;2.10;;;1.20;;
11548;SDS011;61444;59.472;18.306;2023-02-27T11:42:44;2.10;;;1.30;;
11548;SDS011;61444;59.472;18.306;2023-02-27T11:44:55;1.03;;;0.50;;
11548;SDS011;61444;59.472;18.306;2023-02-27T11:47:10;1.57;;;0.50;;
11548;SDS011;61444;59.472;18.306;2023-02-27T11:49:24;1.13;;;0.40;;
11548;SDS011;61444;59.472;18.306;2023-02-27T11:51:48;0.43;;;0.43;;
11548;SDS011;61444;59.472;18.306;2023-02-27T11:54:12;1.10;;;0.70;;
11548;SDS011;61444;59.472;18.306;2023-02-27T11:56:38;0.70;;;0.60;;
11548;SDS011;61444;59.472;18.306;2023-02-27T11:58:51;0.87;;;0.60;;
11548;SDS011;61444;59.472;18.306;2023-02-27T12:01:14;0.73;;;0.60;;
11548;SDS011;61444;59.472;18.306;2023-02-27T12:03:26;0.80;;;0.47;;
11548;SDS011;61444;59.472;18.306;2023-02-27T12:05:40;1.50;;;0.60;;
11548;SDS011;61444;59.472;18.306;2023-02-27T12:07:54;0.40;;;0.40;;
11548;SDS011;61444;59.472;18.306;2023-02-27T12:10:28;0.50;;;0.50;;
11548;SDS011;61444;59.472;18.306;2023-02-27T12:12:51;1.10;;;0.43;;
11548;SDS011;61444;59.472;18.306;2023-02-27T12:15:15;0.70;;;0.50;;
11548;SDS011;61444;59.472;18.306;2023-02-27T12:17:48;0.63;;;0.40;;
11548;SDS011;61444;59.472;18.306;2023-02-27T12:20:03;0.33;;;0.30;;
11548;SDS011;61444;59.472;18.306;2023-02-27T12:22:17;0.47;;;0.37;;
11548;SDS011;61444;59.472;18.306;2023-02-27T12:24:37;1.03;;;0.40;;
11548;SDS011;61444;59.472;18.306;2023-02-27T12:26:51;0.43;;;0.40;;
11548;SDS011;61444;59.472;18.306;2023-02-27T12:29:13;0.40;;;0.40;;
11548;SDS011;61444;59.472;18.306;2023-02-27T12:31:38;0.40;;;0.30;;
11548;SDS011;61444;59.472;18.306;2023-02-27T12:34:13;0.57;;;0.40;;
11548;SDS011;61444;59.472;18.306;2023-02-27T12:36:29;1.10;;;0.50;;
11548;SDS011;61444;59.472;18.306;2023-02-27T12:38:43;1.03;;;0.43;;
11548;SDS011;61444;59.472;18.306;2023-02-27T12:40:57;1.00;;;0.67;;
11548;SDS011;61444;59.472;18.306;2023-02-27T12:43:14;1.83;;;0.60;;
11548;SDS011;61444;59.472;18.306;2023-02-27T12:47:52;0.50;;;0.40;;
11548;SDS011;61444;59.472;18.306;2023-02-27T12:50:04;0.97;;;0.40;;
11548;SDS011;61444;59.472;18.306;2023-02-27T12:52:16;0.43;;;0.30;;
11548;SDS011;61444;59.472;18.306;2023-02-27T12:54:33;1.80;;;0.33;;
11548;SDS011;61444;59.472;18.306;2023-02-27T12:56:55;0.57;;;0.40;;
11548;SDS011;61444;59.472;18.306;2023-02-27T12:59:10;0.93;;;0.33;;
11548;SDS011;61444;59.472;18.306;2023-02-27T13:01:26;0.70;;;0.53;;
11548;SDS011;61444;59.472;18.306;2023-02-27T13:03:41;0.80;;;0.50;;
11548;SDS011;61444;59.472;18.306;2023-02-27T13:05:53;0.73;;;0.40;;
11548;SDS011;61444;59.472;18.306;2023-02-27T13:08:10;1.37;;;0.40;;
11548;SDS011;61444;59.472;18.306;2023-02-27T13:10:21;0.50;;;0.40;;
11548;SDS011;61444;59.472;18.306;2023-02-27T13:15:30;0.60;;;0.30;;
11548;SDS011;61444;59.472;18.306;2023-02-27T13:17:42;0.37;;;0.37;;
11548;SDS011;61444;59.472;18.306;2023-02-27T13:19:56;0.60;;;0.47;;